createdAt,value
2023-04-20T00:01:50.808Z,6.32
2023-04-20T00:03:53.523Z,6.13
2023-04-20T00:05:56.263Z,5.88
2023-04-20T00:07:59.721Z,5.72
2023-04-20T00:10:03.481Z,6.25
2023-04-20T00:12:07.733Z,5.75
2023-04-20T00:14:10.339Z,6.32
2023-04-20T00:16:12.966Z,6.47
2023-04-20T00:18:15.528Z,6.97
2023-04-20T00:20:18.396Z,6.85
2023-04-20T00:22:21.060Z,5.68
2023-04-20T00:24:23.629Z,5.35
2023-04-20T00:26:26.447Z,5.30
2023-04-20T00:28:31.127Z,6.20
2023-04-20T00:30:33.713Z,6.13
2023-04-20T00:32:36.344Z,5.88
2023-04-20T00:34:38.990Z,5.95
2023-04-20T00:36:41.562Z,6.28
2023-04-20T00:38:44.189Z,5.70
2023-04-20T00:40:48.901Z,6.40
2023-04-20T00:42:51.600Z,6.88
2023-04-20T00:44:55.624Z,5.70
2023-04-20T00:46:58.269Z,6.72
2023-04-20T00:49:01.312Z,6.47
2023-04-20T00:51:03.931Z,6.35
2023-04-20T00:53:07.689Z,6.03
2023-04-20T00:55:11.163Z,6.70
2023-04-20T00:57:14.794Z,6.88
2023-04-20T00:59:17.877Z,6.63
2023-04-20T01:01:21.947Z,6.28
2023-04-20T01:03:24.709Z,5.93
2023-04-20T01:05:27.688Z,7.28
2023-04-20T01:07:30.728Z,7.00
2023-04-20T01:09:33.383Z,6.10
2023-04-20T01:11:35.934Z,6.60
2023-04-20T01:13:38.567Z,6.50
2023-04-20T01:15:41.170Z,6.57
2023-04-20T01:17:45.637Z,6.07
2023-04-20T01:19:49.166Z,6.38
2023-04-20T01:21:51.939Z,5.93
2023-04-20T01:23:56.057Z,6.22
2023-04-20T01:25:58.667Z,6.07
2023-04-20T01:28:02.060Z,5.72
2023-04-20T01:30:05.215Z,6.32
2023-04-20T01:32:07.944Z,6.35
2023-04-20T01:34:10.535Z,6.70
2023-04-20T01:36:13.129Z,5.38
2023-04-20T01:38:19.109Z,6.25
2023-04-20T01:40:23.120Z,5.72
2023-04-20T01:42:25.852Z,5.93
2023-04-20T01:44:28.553Z,5.88
2023-04-20T01:46:31.176Z,6.35
2023-04-20T01:48:34.292Z,6.00
2023-04-20T01:50:36.925Z,6.20
2023-04-20T01:52:39.447Z,6.15
2023-04-20T01:54:41.984Z,6.60
2023-04-20T01:56:45.876Z,5.90
2023-04-20T01:58:48.435Z,5.28
2023-04-20T02:00:51.045Z,5.85
2023-04-20T02:02:53.780Z,5.60
2023-04-20T02:04:56.580Z,6.20
2023-04-20T02:06:59.128Z,6.22
2023-04-20T02:09:01.761Z,5.40
2023-04-20T02:11:04.625Z,6.00
2023-04-20T02:13:08.539Z,5.00
2023-04-20T02:15:12.045Z,5.70
2023-04-20T02:17:14.932Z,5.65
2023-04-20T02:19:17.821Z,5.35
2023-04-20T02:21:20.501Z,5.45
2023-04-20T02:23:23.023Z,5.95
2023-04-20T02:25:26.556Z,5.47
2023-04-20T02:27:29.218Z,5.47
2023-04-20T02:29:33.211Z,6.15
2023-04-20T02:31:35.801Z,5.70
2023-04-20T02:33:38.752Z,5.90
2023-04-20T02:35:41.310Z,5.70
2023-04-20T02:37:44.359Z,6.10
2023-04-20T02:39:47.054Z,5.32
2023-04-20T02:41:49.588Z,4.95
2023-04-20T02:43:52.136Z,4.80
2023-04-20T02:45:56.143Z,6.07
2023-04-20T02:47:58.728Z,5.90
2023-04-20T02:50:01.349Z,6.22
2023-04-20T02:52:03.916Z,5.63
2023-04-20T02:54:06.955Z,5.57
2023-04-20T02:56:09.512Z,6.32
2023-04-20T02:58:14.146Z,5.63
2023-04-20T03:00:17.462Z,6.10
2023-04-20T03:04:25.930Z,5.90
2023-04-20T03:06:28.773Z,5.90
2023-04-20T03:08:31.481Z,6.28
2023-04-20T03:10:34.282Z,6.18
2023-04-20T03:12:36.941Z,5.93
2023-04-20T03:14:39.584Z,6.03
2023-04-20T03:16:42.513Z,5.80
2023-04-20T03:18:46.421Z,6.15
2023-04-20T03:20:48.996Z,5.35
2023-04-20T03:22:51.599Z,5.22
2023-04-20T03:24:54.167Z,5.82
2023-04-20T03:26:56.742Z,5.65
2023-04-20T03:28:59.293Z,5.95
2023-04-20T03:31:02.056Z,5.88
2023-04-20T03:33:04.840Z,6.38
2023-04-20T03:35:10.221Z,6.15
2023-04-20T03:37:12.797Z,6.13
2023-04-20T03:39:15.830Z,5.75
2023-04-20T03:41:18.525Z,6.32
2023-04-20T03:43:21.076Z,6.53
2023-04-20T03:45:23.708Z,6.30
2023-04-20T03:47:26.298Z,6.10
2023-04-20T03:49:30.770Z,6.93
2023-04-20T03:51:34.667Z,6.57
2023-04-20T03:53:38.935Z,7.38
2023-04-20T03:55:42.189Z,6.75
2023-04-20T03:57:44.770Z,7.18
2023-04-20T03:59:47.351Z,7.78
2023-04-20T04:01:50.094Z,6.32
2023-04-20T04:03:52.859Z,7.00
2023-04-20T04:05:55.534Z,7.30
2023-04-20T04:07:59.466Z,7.28
2023-04-20T04:10:04.768Z,7.20
2023-04-20T04:12:08.090Z,6.72
2023-04-20T04:14:10.648Z,6.82
2023-04-20T04:16:13.188Z,8.10
2023-04-20T04:18:18.346Z,7.07
2023-04-20T04:20:20.925Z,7.68
2023-04-20T04:22:23.512Z,6.93
2023-04-20T04:24:28.052Z,7.40
2023-04-20T04:26:31.788Z,7.15
2023-04-20T04:28:34.334Z,7.30
2023-04-20T04:30:36.994Z,7.15
2023-04-20T04:32:39.619Z,7.65
2023-04-20T04:34:44.600Z,7.78
2023-04-20T04:36:47.660Z,7.43
2023-04-20T04:38:50.175Z,8.50
2023-04-20T04:40:54.444Z,7.95
2023-04-20T04:42:56.968Z,8.95
2023-04-20T04:45:01.975Z,7.63
2023-04-20T04:47:05.495Z,8.35
2023-04-20T04:49:09.512Z,8.57
2023-04-20T04:51:12.041Z,8.90
2023-04-20T04:53:14.610Z,8.13
2023-04-20T04:55:20.601Z,8.40
2023-04-20T04:57:24.509Z,8.10
2023-04-20T04:59:27.053Z,7.97
2023-04-20T05:01:29.685Z,7.90
2023-04-20T05:03:32.378Z,8.02
2023-04-20T05:05:35.230Z,8.25
2023-04-20T05:07:38.256Z,8.25
2023-04-20T05:09:40.951Z,8.27
2023-04-20T05:11:43.477Z,8.20
2023-04-20T05:13:48.441Z,8.15
2023-04-20T05:15:51.045Z,7.97
2023-04-20T05:17:53.682Z,7.57
2023-04-20T05:19:56.390Z,8.32
2023-04-20T05:21:58.987Z,8.80
2023-04-20T05:24:01.605Z,8.70
2023-04-20T05:26:04.205Z,8.70
2023-04-20T05:28:06.859Z,8.68
2023-04-20T05:30:20.710Z,8.25
2023-04-20T05:32:24.587Z,8.70
2023-04-20T05:34:27.367Z,8.50
2023-04-20T05:36:30.260Z,8.93
2023-04-20T05:38:32.849Z,8.82
2023-04-20T05:40:35.884Z,8.68
2023-04-20T05:42:38.538Z,9.48
2023-04-20T05:44:41.373Z,9.07
2023-04-20T05:46:47.607Z,9.27
2023-04-20T05:48:50.474Z,8.98
2023-04-20T05:50:53.012Z,7.90
2023-04-20T05:52:55.724Z,8.98
2023-04-20T05:54:59.398Z,9.23
2023-04-20T05:57:01.947Z,8.93
2023-04-20T05:59:05.405Z,8.07
2023-04-20T06:01:08.095Z,8.38
2023-04-20T06:03:12.164Z,8.85
2023-04-20T06:05:15.110Z,8.88
2023-04-20T06:07:17.976Z,9.13
2023-04-20T06:09:20.787Z,9.15
2023-04-20T06:11:23.320Z,9.35
2023-04-20T06:13:26.477Z,8.95
2023-04-20T06:15:29.410Z,9.15
2023-04-20T06:17:32.060Z,8.80
2023-04-20T06:19:36.001Z,8.63
2023-04-20T06:21:38.673Z,9.07
2023-04-20T06:23:41.334Z,9.77
2023-04-20T06:25:44.045Z,8.75
2023-04-20T06:27:46.638Z,9.13
2023-04-20T06:29:50.687Z,8.77
2023-04-20T06:31:53.583Z,8.85
2023-04-20T06:33:56.285Z,8.90
2023-04-20T06:36:00.227Z,8.70
2023-04-20T06:38:02.925Z,9.07
2023-04-20T06:40:08.449Z,8.88
2023-04-20T06:42:11.388Z,9.57
2023-04-20T06:44:13.937Z,8.95
2023-04-20T06:46:16.684Z,9.70
2023-04-20T06:48:31.501Z,10.00
2023-04-20T06:50:35.621Z,9.85
2023-04-20T06:52:40.653Z,9.90
2023-04-20T06:54:43.233Z,10.93
2023-04-20T06:56:45.798Z,10.98
2023-04-20T06:58:48.852Z,11.43
2023-04-20T07:00:51.456Z,10.55
2023-04-20T07:02:54.256Z,11.93
2023-04-20T07:05:01.830Z,9.73
2023-04-20T07:07:04.457Z,10.15
2023-04-20T07:09:09.246Z,9.50
2023-04-20T07:11:11.838Z,9.45
2023-04-20T07:13:14.507Z,10.18
2023-04-20T07:15:17.081Z,10.32
2023-04-20T07:17:19.630Z,9.65
2023-04-20T07:19:22.310Z,9.75
2023-04-20T07:21:24.833Z,10.18
2023-04-20T07:23:27.361Z,9.38
2023-04-20T07:25:33.513Z,9.30
2023-04-20T07:27:37.271Z,9.60
2023-04-20T07:29:40.076Z,9.23
2023-04-20T07:31:42.642Z,9.68
2023-04-20T07:33:45.321Z,9.82
2023-04-20T07:35:48.019Z,10.15
2023-04-20T07:37:50.625Z,9.63
2023-04-20T07:39:53.291Z,10.50
2023-04-20T07:41:57.868Z,10.30
2023-04-20T07:44:00.422Z,9.73
2023-04-20T07:46:03.072Z,11.20
2023-04-20T07:48:06.324Z,10.32
2023-04-20T07:50:09.529Z,9.75
2023-04-20T07:52:16.789Z,10.15
2023-04-20T07:54:20.112Z,10.05
2023-04-20T07:56:22.729Z,11.02
2023-04-20T07:58:26.750Z,10.40
2023-04-20T08:00:29.741Z,10.38
2023-04-20T08:02:33.086Z,10.15
2023-04-20T08:04:37.821Z,10.68
2023-04-20T08:06:40.774Z,10.90
2023-04-20T08:08:43.508Z,10.48
2023-04-20T08:10:46.685Z,9.90
2023-04-20T08:12:52.455Z,11.18
2023-04-20T08:15:00.530Z,10.90
2023-04-20T08:17:03.145Z,11.20
2023-04-20T08:19:10.081Z,11.27
2023-04-20T08:21:12.740Z,11.02
2023-04-20T08:23:15.305Z,10.98
2023-04-20T08:25:18.167Z,10.75
2023-04-20T08:27:21.025Z,10.70
2023-04-20T08:29:23.706Z,11.25
2023-04-20T08:31:28.392Z,11.70
2023-04-20T08:33:31.170Z,10.45
2023-04-20T08:35:33.737Z,11.52
2023-04-20T08:37:37.463Z,10.85
2023-04-20T08:39:40.109Z,11.45
2023-04-20T08:41:42.823Z,12.32
2023-04-20T08:43:46.632Z,12.52
2023-04-20T08:45:51.710Z,12.27
2023-04-20T08:47:57.351Z,11.95
2023-04-20T08:50:01.182Z,12.00
2023-04-20T08:52:04.037Z,12.77
2023-04-20T08:54:07.439Z,13.00
2023-04-20T08:56:10.218Z,12.35
2023-04-20T08:58:12.751Z,13.55
2023-04-20T09:00:16.591Z,11.57
2023-04-20T09:02:19.334Z,11.85
2023-04-20T09:04:25.599Z,12.10
2023-04-20T09:06:29.074Z,12.63
2023-04-20T09:08:39.878Z,12.20
2023-04-20T09:10:44.017Z,12.00
2023-04-20T09:12:46.591Z,11.85
2023-04-20T09:14:50.016Z,11.82
2023-04-20T09:16:54.270Z,11.88
2023-04-20T09:18:57.759Z,11.82
2023-04-20T09:21:10.341Z,11.40
2023-04-20T09:23:13.577Z,12.23
2023-04-20T09:25:16.511Z,12.30
2023-04-20T09:27:21.744Z,11.63
2023-04-20T09:29:25.818Z,12.77
2023-04-20T09:31:28.509Z,12.60
2023-04-20T09:33:32.485Z,13.27
2023-04-20T09:35:36.232Z,12.20
2023-04-20T09:37:49.314Z,13.25
2023-04-20T09:39:52.034Z,13.45
2023-04-20T09:41:54.637Z,12.60
2023-04-20T09:43:58.417Z,13.25
2023-04-20T09:46:01.212Z,12.85
2023-04-20T09:48:07.468Z,12.43
2023-04-20T09:50:24.848Z,13.88
2023-04-20T09:54:39.094Z,13.23
2023-04-20T09:56:42.418Z,13.07
2023-04-20T09:58:47.812Z,13.10
2023-04-20T10:00:50.921Z,14.38
2023-04-20T10:02:54.007Z,13.75
2023-04-20T10:04:57.355Z,14.13
2023-04-20T10:07:03.688Z,14.15
2023-04-20T10:09:08.403Z,12.65
2023-04-20T10:11:12.498Z,13.75
2023-04-20T10:13:16.047Z,13.77
2023-04-20T10:15:18.942Z,13.27
2023-04-20T10:17:31.225Z,13.68
2023-04-20T10:19:41.142Z,13.07
2023-04-20T10:21:48.149Z,14.18
2023-04-20T10:23:51.771Z,13.40
2023-04-20T10:25:59.053Z,13.93
2023-04-20T10:28:09.652Z,14.13
2023-04-20T10:30:13.089Z,13.80
2023-04-20T10:32:25.923Z,13.93
2023-04-20T10:34:32.430Z,14.73
2023-04-20T10:36:37.883Z,13.68
2023-04-20T10:38:40.516Z,14.02
2023-04-20T10:40:43.466Z,15.10
2023-04-20T10:42:46.466Z,13.68
2023-04-20T10:44:50.845Z,13.90
2023-04-20T10:46:54.070Z,14.75
2023-04-20T10:48:58.754Z,14.20
2023-04-20T10:51:10.468Z,12.38
2023-04-20T10:53:21.379Z,11.55
2023-04-20T10:55:26.100Z,12.48
2023-04-20T10:57:28.690Z,11.55
2023-04-20T10:59:37.223Z,11.90
2023-04-20T11:01:41.980Z,10.13
2023-04-20T11:03:51.196Z,9.02
2023-04-20T11:05:53.856Z,9.90
2023-04-20T11:07:58.148Z,9.20
2023-04-20T11:10:00.750Z,9.55
2023-04-20T11:12:04.738Z,8.52
2023-04-20T11:14:08.450Z,8.70
2023-04-20T11:16:12.972Z,8.07
2023-04-20T11:18:17.313Z,8.43
2023-04-20T11:20:19.899Z,7.10
2023-04-20T11:22:23.546Z,8.48
2023-04-20T11:24:28.367Z,7.53
2023-04-20T11:26:36.400Z,8.07
2023-04-20T11:28:39.013Z,6.95
2023-04-20T11:30:42.065Z,6.50
2023-04-20T11:32:54.693Z,6.10
2023-04-20T11:35:07.103Z,6.10
2023-04-20T11:37:13.781Z,6.30
2023-04-20T11:39:17.837Z,6.45
2023-04-20T11:41:21.703Z,6.22
2023-04-20T11:43:24.891Z,6.55
2023-04-20T11:45:29.411Z,6.20
2023-04-20T11:47:32.244Z,5.78
2023-04-20T11:49:34.888Z,5.22
2023-04-20T11:51:39.064Z,5.80
2023-04-20T11:53:42.008Z,5.05
2023-04-20T11:55:44.569Z,4.97
2023-04-20T11:57:47.157Z,4.65
2023-04-20T11:59:49.738Z,5.18
2023-04-20T12:01:52.393Z,4.60
2023-04-20T12:03:56.056Z,4.75
2023-04-20T12:05:58.784Z,4.60
2023-04-20T12:08:02.767Z,4.75
2023-04-20T12:10:06.088Z,4.95
2023-04-20T12:12:09.832Z,5.47
2023-04-20T12:14:12.383Z,5.75
2023-04-20T12:16:14.961Z,5.70
2023-04-20T12:18:17.576Z,5.68
2023-04-20T12:20:20.738Z,5.38
2023-04-20T12:22:23.330Z,5.57
2023-04-20T12:24:27.317Z,5.90
2023-04-20T12:26:37.952Z,5.38
2023-04-20T12:28:41.131Z,5.38
2023-04-20T12:30:43.685Z,5.90
2023-04-20T12:32:46.315Z,5.90
2023-04-20T12:34:48.924Z,6.50
2023-04-20T12:36:51.538Z,7.10
2023-04-20T12:38:55.881Z,5.97
2023-04-20T12:40:59.752Z,6.57
2023-04-20T12:43:02.328Z,6.70
2023-04-20T12:45:05.437Z,5.57
2023-04-20T12:47:08.198Z,6.35
2023-04-20T12:49:11.051Z,5.40
2023-04-20T12:51:14.591Z,5.53
2023-04-20T12:53:17.261Z,5.95
2023-04-20T12:55:19.917Z,5.82
2023-04-20T12:57:23.906Z,4.10
2023-04-20T12:59:26.470Z,3.53
2023-04-20T13:01:29.082Z,3.38
2023-04-20T13:03:31.835Z,3.00
2023-04-20T13:05:34.740Z,2.70
2023-04-20T13:07:37.402Z,2.58
2023-04-20T13:09:40.119Z,3.33
2023-04-20T13:11:42.887Z,3.28
2023-04-20T13:13:47.066Z,2.75
2023-04-20T13:15:49.633Z,3.08
2023-04-20T13:17:52.284Z,3.40
2023-04-20T13:19:54.890Z,3.03
2023-04-20T13:21:57.612Z,3.50
2023-04-20T13:24:00.163Z,3.25
2023-04-20T13:26:02.792Z,3.13
2023-04-20T13:28:06.242Z,3.20
2023-04-20T13:30:11.553Z,4.00
2023-04-20T13:32:14.177Z,3.22
2023-04-20T13:34:17.283Z,4.40
2023-04-20T13:36:20.101Z,4.95
2023-04-20T13:38:22.735Z,4.40
2023-04-20T13:40:25.741Z,4.70
2023-04-20T13:42:28.815Z,3.92
2023-04-20T13:44:31.397Z,4.60
2023-04-20T13:46:35.436Z,4.32
2023-04-20T13:48:38.482Z,4.47
2023-04-20T13:50:41.055Z,4.57
2023-04-20T13:52:43.637Z,4.82
2023-04-20T13:54:46.178Z,4.60
2023-04-20T13:56:48.742Z,5.15
2023-04-20T13:58:51.366Z,5.18
2023-04-20T14:00:54.525Z,5.38
2023-04-20T14:02:58.576Z,5.18
2023-04-20T14:05:02.711Z,6.05
2023-04-20T14:07:05.358Z,5.80
2023-04-20T14:09:07.890Z,5.88
2023-04-20T14:11:10.708Z,6.30
2023-04-20T14:13:13.293Z,5.90
2023-04-20T14:15:15.918Z,6.22
2023-04-20T14:17:18.525Z,7.03
2023-04-20T14:19:22.462Z,6.53
2023-04-20T14:21:25.012Z,6.38
2023-04-20T14:23:27.642Z,6.43
2023-04-20T14:25:30.441Z,6.97
2023-04-20T14:27:33.085Z,6.28
2023-04-20T14:29:35.771Z,6.80
2023-04-20T14:31:38.576Z,6.63
2023-04-20T14:33:44.524Z,6.85
2023-04-20T14:35:48.434Z,6.60
2023-04-20T14:37:51.002Z,6.63
2023-04-20T14:39:53.635Z,6.90
2023-04-20T14:41:56.503Z,6.38
2023-04-20T14:43:59.092Z,7.13
2023-04-20T14:46:02.748Z,7.47
2023-04-20T14:48:05.907Z,7.25
2023-04-20T14:50:10.227Z,8.77
2023-04-20T14:52:14.205Z,7.93
2023-04-20T14:54:17.093Z,8.55
2023-04-20T14:56:19.923Z,8.50
2023-04-20T14:58:23.380Z,8.93
2023-04-20T15:00:28.117Z,8.38
2023-04-20T15:02:31.094Z,8.32
2023-04-20T15:04:34.020Z,8.18
2023-04-20T15:06:36.663Z,8.60
2023-04-20T15:08:40.555Z,8.90
2023-04-20T15:10:43.130Z,9.43
2023-04-20T15:12:45.967Z,9.18
2023-04-20T15:14:48.521Z,9.90
2023-04-20T15:16:52.554Z,9.30
2023-04-20T15:18:55.322Z,9.35
2023-04-20T15:20:57.949Z,8.98
2023-04-20T15:23:00.628Z,9.52
2023-04-20T15:25:04.884Z,9.60
2023-04-20T15:27:07.888Z,9.85
2023-04-20T15:29:10.499Z,9.20
2023-04-20T15:31:17.565Z,9.82
2023-04-20T15:33:20.231Z,9.32
2023-04-20T15:35:23.184Z,9.73
2023-04-20T15:37:25.774Z,10.00
2023-04-20T15:39:28.336Z,10.00
2023-04-20T15:41:32.208Z,9.15
2023-04-20T15:43:34.782Z,9.02
2023-04-20T15:45:37.430Z,9.07
2023-04-20T15:47:40.044Z,9.05
2023-04-20T15:49:42.636Z,10.07
2023-04-20T15:51:45.161Z,9.77
2023-04-20T15:53:50.554Z,9.15
2023-04-20T15:55:53.328Z,9.05
2023-04-20T15:58:00.384Z,9.35
2023-04-20T16:00:04.210Z,9.13
2023-04-20T16:02:06.868Z,9.20
2023-04-20T16:04:09.810Z,9.15
2023-04-20T16:06:12.875Z,8.38
2023-04-20T16:08:15.614Z,8.63
2023-04-20T16:10:18.310Z,8.55
2023-04-20T16:12:20.916Z,8.75
2023-04-20T16:14:24.851Z,10.15
2023-04-20T16:16:27.781Z,8.63
2023-04-20T16:18:32.082Z,8.32
2023-04-20T16:20:34.641Z,8.18
2023-04-20T16:22:37.355Z,8.50
2023-04-20T16:24:40.189Z,7.95
2023-04-20T16:26:42.727Z,8.45
2023-04-20T16:28:45.291Z,10.35
2023-04-20T16:30:49.187Z,8.60
2023-04-20T16:32:53.050Z,7.78
2023-04-20T16:34:55.769Z,8.15
2023-04-20T16:36:58.518Z,8.38
2023-04-20T16:39:04.103Z,8.30
2023-04-20T16:41:06.865Z,8.35
2023-04-20T16:43:09.555Z,8.95
2023-04-20T16:45:12.320Z,9.70
2023-04-20T16:47:16.243Z,9.43
2023-04-20T16:49:18.946Z,9.43
2023-04-20T16:51:21.575Z,9.85
2023-04-20T16:53:24.081Z,10.52
2023-04-20T16:55:26.879Z,10.00
2023-04-20T16:57:30.289Z,10.48
2023-04-20T16:59:32.815Z,10.13
2023-04-20T17:01:35.464Z,10.60
2023-04-20T17:03:39.445Z,10.95
2023-04-20T17:05:42.370Z,10.30
2023-04-20T17:07:46.366Z,11.20
2023-04-20T17:09:48.872Z,10.00
2023-04-20T17:11:53.284Z,10.88
2023-04-20T17:13:56.277Z,10.95
2023-04-20T17:15:58.890Z,9.48
2023-04-20T17:18:02.219Z,10.00
2023-04-20T17:20:07.704Z,11.50
2023-04-20T17:22:10.408Z,12.60
2023-04-20T17:24:12.967Z,11.85
2023-04-20T17:26:15.519Z,11.65
2023-04-20T17:28:18.112Z,12.25
2023-04-20T17:30:21.080Z,12.98
2023-04-20T17:32:23.764Z,13.27
2023-04-20T17:34:27.101Z,12.77
2023-04-20T17:36:31.869Z,12.07
2023-04-20T17:38:36.505Z,12.82
2023-04-20T17:40:39.091Z,13.05
2023-04-20T17:42:41.636Z,13.75
2023-04-20T17:44:44.240Z,13.60
2023-04-20T17:46:46.804Z,12.90
2023-04-20T17:48:49.368Z,13.35
2023-04-20T17:50:52.550Z,12.48
2023-04-20T17:52:56.484Z,13.70
2023-04-20T17:55:02.942Z,12.05
2023-04-20T17:57:07.248Z,12.63
2023-04-20T17:59:11.781Z,12.50
2023-04-20T18:01:16.418Z,14.00
2023-04-20T18:03:19.950Z,13.15
2023-04-20T18:05:22.914Z,14.32
2023-04-20T18:07:25.593Z,13.88
2023-04-20T18:09:30.621Z,14.73
2023-04-20T18:11:33.152Z,14.02
2023-04-20T18:13:35.702Z,13.77
2023-04-20T18:15:38.278Z,14.40
2023-04-20T18:17:40.911Z,14.52
2023-04-20T18:19:43.465Z,14.02
2023-04-20T18:21:46.081Z,12.85
2023-04-20T18:23:48.651Z,14.55
2023-04-20T18:25:53.742Z,14.50
2023-04-20T18:27:56.375Z,13.40
2023-04-20T18:29:59.741Z,14.40
2023-04-20T18:32:02.464Z,15.63
2023-04-20T18:34:05.185Z,14.15
2023-04-20T18:36:08.182Z,14.35
2023-04-20T18:38:10.738Z,14.63
2023-04-20T18:40:15.946Z,15.10
2023-04-20T18:42:20.227Z,15.35
2023-04-20T18:44:22.902Z,15.05
2023-04-20T18:46:26.433Z,15.23
2023-04-20T18:48:28.988Z,15.18
2023-04-20T18:50:31.651Z,15.82
2023-04-20T18:52:35.040Z,15.40
2023-04-20T18:54:38.441Z,15.07
2023-04-20T18:56:43.472Z,14.82
2023-04-20T18:58:47.503Z,16.10
2023-04-20T19:00:50.094Z,15.70
2023-04-20T19:02:52.897Z,15.15
2023-04-20T19:04:55.640Z,15.93
2023-04-20T19:06:58.215Z,15.93
2023-04-20T19:09:01.117Z,16.40
2023-04-20T19:11:03.683Z,15.68
2023-04-20T19:13:06.242Z,15.82
2023-04-20T19:15:11.196Z,15.43
2023-04-20T19:17:13.852Z,16.33
2023-04-20T19:19:16.368Z,15.70
2023-04-20T19:21:20.996Z,17.00
2023-04-20T19:23:24.622Z,17.17
2023-04-20T19:25:27.244Z,16.27
2023-04-20T19:27:30.624Z,15.65
2023-04-20T19:29:35.240Z,16.35
2023-04-20T19:31:40.278Z,15.35
2023-04-20T19:33:43.397Z,15.35
2023-04-20T19:35:50.472Z,15.18
2023-04-20T19:37:53.025Z,16.48
2023-04-20T19:39:55.620Z,14.20
2023-04-20T19:41:58.622Z,15.02
2023-04-20T19:44:04.351Z,15.93
2023-04-20T19:46:09.620Z,15.45
2023-04-20T19:48:13.694Z,14.98
2023-04-20T19:50:16.395Z,14.30
2023-04-20T19:52:18.951Z,15.68
2023-04-20T19:54:21.555Z,14.40
2023-04-20T19:56:24.120Z,15.45
2023-04-20T19:58:27.168Z,15.18
2023-04-20T20:00:29.722Z,15.48
2023-04-20T20:02:32.408Z,15.13
2023-04-20T20:04:37.703Z,13.75
2023-04-20T20:06:40.553Z,15.30
2023-04-20T20:08:43.113Z,15.80
2023-04-20T20:10:45.673Z,15.23
2023-04-20T20:12:48.429Z,15.45
2023-04-20T20:14:51.049Z,16.33
2023-04-20T20:16:53.631Z,14.85
2023-04-20T20:18:56.328Z,15.77
2023-04-20T20:21:00.218Z,15.40
2023-04-20T20:23:02.769Z,15.82
2023-04-20T20:25:07.018Z,16.20
2023-04-20T20:27:09.547Z,15.90
2023-04-20T20:29:12.086Z,16.05
2023-04-20T20:31:14.671Z,16.17
2023-04-20T20:33:17.227Z,15.35
2023-04-20T20:35:20.565Z,16.52
2023-04-20T20:37:24.688Z,16.50
2023-04-20T20:39:27.379Z,17.10
2023-04-20T20:41:30.455Z,15.63
2023-04-20T20:43:33.895Z,15.80
2023-04-20T20:45:37.242Z,16.50
2023-04-20T20:47:39.951Z,16.15
2023-04-20T20:49:42.468Z,17.48
2023-04-20T20:51:45.014Z,16.08
2023-04-20T20:53:48.883Z,16.83
2023-04-20T20:55:51.430Z,17.88
2023-04-20T20:57:53.956Z,17.10
2023-04-20T20:59:56.575Z,17.23
2023-04-20T21:01:59.243Z,17.63
2023-04-20T21:04:02.347Z,18.85
2023-04-20T21:06:05.850Z,18.02
2023-04-20T21:08:09.862Z,17.92
2023-04-20T21:10:13.745Z,18.42
2023-04-20T21:12:16.262Z,18.50
2023-04-20T21:14:18.782Z,18.50
2023-04-20T21:16:21.368Z,19.02
2023-04-20T21:18:23.906Z,19.27
2023-04-20T21:20:26.479Z,19.05
2023-04-20T21:22:30.748Z,19.17
2023-04-20T21:24:33.383Z,18.33
2023-04-20T21:26:38.233Z,18.90
2023-04-20T21:28:40.791Z,18.90
2023-04-20T21:30:43.349Z,19.35
2023-04-20T21:32:46.270Z,18.60
2023-04-20T21:34:48.808Z,19.55
2023-04-20T21:36:51.912Z,19.20
2023-04-20T21:38:54.661Z,17.38
2023-04-20T21:40:57.213Z,19.05
2023-04-20T21:43:01.090Z,18.10
2023-04-20T21:45:03.713Z,18.48
2023-04-20T21:47:06.249Z,18.63
2023-04-20T21:49:08.758Z,17.85
2023-04-20T21:51:15.925Z,18.58
2023-04-20T21:53:18.671Z,17.98
2023-04-20T21:55:21.608Z,17.30
2023-04-20T21:57:24.131Z,18.23
2023-04-20T21:59:28.010Z,17.98
2023-04-20T22:01:30.694Z,18.90
2023-04-20T22:03:34.872Z,18.00
2023-04-20T22:05:38.943Z,20.15
2023-04-20T22:07:41.699Z,18.63
2023-04-20T22:09:44.248Z,20.13
2023-04-20T22:11:47.761Z,19.30
2023-04-20T22:13:50.391Z,18.75
2023-04-20T22:15:54.660Z,18.67
2023-04-20T22:18:00.506Z,18.98
2023-04-20T22:20:04.604Z,19.77
2023-04-20T22:22:07.148Z,20.08
2023-04-20T22:24:09.689Z,18.90
2023-04-20T22:26:12.275Z,19.05
2023-04-20T22:28:14.991Z,19.67
2023-04-20T22:30:17.537Z,17.98
2023-04-20T22:32:21.429Z,19.17
2023-04-20T22:34:24.117Z,18.40
2023-04-20T22:36:26.642Z,18.52
2023-04-20T22:38:29.259Z,18.67
2023-04-20T22:40:32.052Z,17.55
2023-04-20T22:42:35.897Z,16.60
2023-04-20T22:44:38.470Z,18.00
2023-04-20T22:46:41.467Z,18.10
2023-04-20T22:48:48.463Z,17.17
2023-04-20T22:50:52.334Z,15.00
2023-04-20T22:52:54.942Z,17.20
2023-04-20T22:54:57.496Z,15.95
2023-04-20T22:57:00.020Z,14.43
2023-04-20T22:59:02.572Z,14.85
2023-04-20T23:01:05.204Z,14.23
2023-04-20T23:03:07.939Z,13.15
2023-04-20T23:05:12.128Z,14.00
2023-04-20T23:07:14.689Z,13.00
2023-04-20T23:09:20.477Z,11.07
2023-04-20T23:11:23.295Z,11.35
2023-04-20T23:13:26.230Z,11.05
2023-04-20T23:15:28.981Z,11.00
2023-04-20T23:17:32.261Z,10.55
2023-04-20T23:19:35.372Z,9.80
2023-04-20T23:21:39.249Z,9.60
2023-04-20T23:23:41.853Z,9.43
2023-04-20T23:25:44.396Z,8.90
2023-04-20T23:27:46.928Z,9.13
2023-04-20T23:29:49.505Z,9.27
2023-04-20T23:31:52.099Z,8.48
2023-04-20T23:33:54.971Z,8.65
2023-04-20T23:35:59.095Z,8.93
2023-04-20T23:38:03.007Z,8.85
2023-04-20T23:40:07.380Z,7.97
2023-04-20T23:42:09.925Z,8.75
2023-04-20T23:44:12.950Z,8.63
2023-04-20T23:46:15.543Z,8.77
2023-04-20T23:48:18.093Z,8.10
2023-04-20T23:50:20.845Z,7.22
2023-04-20T23:52:23.422Z,7.57
2023-04-20T23:54:27.354Z,6.70
2023-04-20T23:56:29.919Z,6.50
2023-04-20T23:58:32.885Z,6.47
